createdAt,value
2023-02-06T00:00:02.913Z,0.00
2023-02-06T00:01:03.352Z,0.00
2023-02-06T00:02:03.714Z,0.00
2023-02-06T00:03:02.887Z,0.00
2023-02-06T00:04:02.898Z,0.00
2023-02-06T00:05:03.236Z,0.00
2023-02-06T00:06:03.039Z,0.00
2023-02-06T00:07:02.996Z,0.00
2023-02-06T00:08:03.033Z,0.00
2023-02-06T00:09:03.661Z,0.00
2023-02-06T00:10:03.073Z,0.00
2023-02-06T00:11:02.971Z,0.00
2023-02-06T00:12:02.982Z,0.00
2023-02-06T00:13:02.991Z,0.00
2023-02-06T00:14:03.022Z,0.00
2023-02-06T00:15:03.710Z,0.00
2023-02-06T00:16:03.031Z,0.00
2023-02-06T00:17:03.002Z,0.00
2023-02-06T00:18:02.976Z,0.00
2023-02-06T00:19:03.047Z,0.00
2023-02-06T00:20:03.021Z,0.00
2023-02-06T00:21:03.166Z,0.00
2023-02-06T00:22:03.099Z,0.00
2023-02-06T00:23:03.183Z,0.00
2023-02-06T00:24:03.288Z,0.00
2023-02-06T00:25:03.170Z,0.00
2023-02-06T00:26:03.158Z,0.00
2023-02-06T00:27:03.173Z,0.00
2023-02-06T00:28:03.377Z,0.00
2023-02-06T00:29:03.206Z,0.00
2023-02-06T00:30:03.210Z,0.00
2023-02-06T00:31:03.306Z,0.00
2023-02-06T00:32:03.267Z,0.00
2023-02-06T00:33:03.207Z,0.00
2023-02-06T00:34:03.210Z,0.00
2023-02-06T00:35:03.210Z,0.00
2023-02-06T00:36:03.255Z,0.00
2023-02-06T00:37:03.209Z,0.00
2023-02-06T00:38:03.622Z,0.00
2023-02-06T00:39:03.358Z,0.00
2023-02-06T00:40:04.361Z,0.00
2023-02-06T00:41:04.099Z,0.00
2023-02-06T00:42:03.908Z,0.00
2023-02-06T00:43:03.390Z,0.00
2023-02-06T00:44:03.293Z,0.00
2023-02-06T00:45:04.250Z,0.00
2023-02-06T00:46:03.458Z,0.00
2023-02-06T00:47:03.380Z,0.00
2023-02-06T00:48:03.444Z,0.00
2023-02-06T00:49:03.412Z,0.00
2023-02-06T00:50:03.571Z,0.00
2023-02-06T00:51:03.386Z,0.00
2023-02-06T00:52:03.553Z,0.00
2023-02-06T00:53:03.447Z,0.00
2023-02-06T00:54:04.542Z,0.00
2023-02-06T00:55:07.105Z,0.00
2023-02-06T00:56:08.792Z,0.00
2023-02-06T00:57:03.776Z,0.00
2023-02-06T00:58:03.719Z,0.00
2023-02-06T00:59:03.452Z,0.00
2023-02-06T01:00:03.525Z,0.00
2023-02-06T01:01:03.507Z,0.00
2023-02-06T01:02:03.544Z,0.00
2023-02-06T01:03:03.516Z,0.00
2023-02-06T01:04:03.470Z,0.00
2023-02-06T01:05:03.412Z,0.00
2023-02-06T01:06:03.462Z,0.00
2023-02-06T01:07:03.646Z,0.00
2023-02-06T01:08:04.557Z,0.00
2023-02-06T01:09:03.421Z,0.00
2023-02-06T01:10:03.476Z,0.00
2023-02-06T01:11:03.426Z,0.00
2023-02-06T01:12:03.710Z,0.00
2023-02-06T01:13:03.514Z,0.00
2023-02-06T01:14:03.529Z,0.00
2023-02-06T01:15:03.451Z,0.00
2023-02-06T01:16:03.463Z,0.00
2023-02-06T01:17:03.456Z,0.00
2023-02-06T01:18:03.456Z,0.00
2023-02-06T01:19:03.449Z,0.00
2023-02-06T01:20:03.617Z,0.00
2023-02-06T01:21:04.164Z,0.00
2023-02-06T01:22:04.946Z,0.00
2023-02-06T01:23:04.281Z,0.00
2023-02-06T01:24:03.662Z,0.00
2023-02-06T01:25:04.094Z,0.00
2023-02-06T01:26:03.462Z,0.00
2023-02-06T01:27:03.444Z,0.00
2023-02-06T01:28:03.784Z,0.00
2023-02-06T01:29:03.867Z,0.00
2023-02-06T01:30:04.162Z,0.00
2023-02-06T01:31:04.146Z,0.00
2023-02-06T01:32:03.841Z,0.00
2023-02-06T01:33:03.581Z,0.00
2023-02-06T01:34:03.893Z,0.00
2023-02-06T01:35:03.828Z,0.00
2023-02-06T01:36:04.188Z,0.00
2023-02-06T01:37:04.054Z,0.00
2023-02-06T01:38:54.036Z,1015.39
2023-02-06T01:39:53.940Z,1015.38
2023-02-06T01:40:53.978Z,1015.37
2023-02-06T01:41:53.952Z,1015.37
2023-02-06T01:42:53.934Z,1015.32
2023-02-06T01:43:53.967Z,1015.37
2023-02-06T01:44:53.945Z,1015.33
2023-02-06T01:45:53.978Z,1015.34
2023-02-06T01:46:53.977Z,1015.23
2023-02-06T01:47:53.962Z,1015.22
2023-02-06T01:48:53.975Z,1015.25
2023-02-06T01:49:53.985Z,1015.26
2023-02-06T01:50:53.986Z,1015.19
2023-02-06T01:51:53.993Z,1015.29
2023-02-06T01:53:54.044Z,1015.18
2023-02-06T01:54:54.021Z,1015.29
2023-02-06T01:55:54.023Z,1015.25
2023-02-06T01:56:54.052Z,1015.26
2023-02-06T01:57:53.999Z,1015.29
2023-02-06T01:58:53.962Z,1015.27
2023-02-06T01:59:53.984Z,1015.22
2023-02-06T02:00:53.998Z,1015.24
2023-02-06T02:01:54.092Z,1015.29
2023-02-06T02:02:54.033Z,1015.24
2023-02-06T02:03:53.978Z,1015.27
2023-02-06T02:04:53.970Z,1015.24
2023-02-06T02:05:53.992Z,1015.23
2023-02-06T02:06:54.016Z,1015.16
2023-02-06T02:07:54.010Z,1015.19
2023-02-06T02:08:54.030Z,1015.22
2023-02-06T02:09:54.007Z,1015.12
2023-02-06T02:10:53.999Z,1015.08
2023-02-06T02:11:54.046Z,1015.11
2023-02-06T02:12:54.022Z,1015.17
2023-02-06T02:13:54.052Z,1015.16
2023-02-06T02:14:54.172Z,1015.16
2023-02-06T02:15:54.185Z,1015.16
2023-02-06T02:16:54.229Z,1015.18
2023-02-06T02:17:54.203Z,1015.21
2023-02-06T02:18:54.207Z,1015.13
2023-02-06T02:19:54.230Z,1015.23
2023-02-06T02:20:54.221Z,1015.26
2023-02-06T02:21:54.262Z,1015.21
2023-02-06T02:22:54.258Z,1015.16
2023-02-06T02:23:54.293Z,1015.24
2023-02-06T02:24:54.271Z,1015.25
2023-02-06T02:25:54.316Z,1015.26
2023-02-06T02:26:54.334Z,1015.23
2023-02-06T02:27:54.395Z,1015.23
2023-02-06T02:28:54.360Z,1015.20
2023-02-06T02:29:54.377Z,1015.17
2023-02-06T02:30:54.405Z,1015.10
2023-02-06T02:31:54.458Z,1015.06
2023-02-06T02:32:54.470Z,1015.09
2023-02-06T02:33:54.486Z,1015.11
2023-02-06T02:34:54.449Z,1015.07
2023-02-06T02:35:54.471Z,1015.07
2023-02-06T02:36:54.527Z,1015.05
2023-02-06T02:37:54.537Z,1015.09
2023-02-06T02:38:54.756Z,-172.64
2023-02-06T02:39:54.738Z,1015.06
2023-02-06T02:40:54.738Z,1015.10
2023-02-06T02:41:54.700Z,1015.13
2023-02-06T02:42:54.717Z,1015.10
2023-02-06T02:43:54.756Z,1015.07
2023-02-06T02:44:54.742Z,1015.12
2023-02-06T02:45:54.818Z,1015.10
2023-02-06T02:46:54.708Z,1015.08
2023-02-06T02:47:54.813Z,1015.13
2023-02-06T02:48:54.716Z,1015.16
2023-02-06T02:49:54.727Z,1015.11
2023-02-06T02:50:54.767Z,1015.10
2023-02-06T02:51:54.727Z,1015.11
2023-02-06T02:52:54.743Z,1015.06
2023-02-06T02:53:54.706Z,1015.09
2023-02-06T02:54:54.724Z,1015.07
2023-02-06T02:55:54.729Z,1015.09
2023-02-06T02:56:54.707Z,1015.05
2023-02-06T02:57:54.912Z,1015.12
2023-02-06T02:58:54.841Z,1015.13
2023-02-06T02:59:54.880Z,1015.21
2023-02-06T03:00:54.941Z,1015.22
2023-02-06T03:01:54.867Z,1015.25
2023-02-06T03:02:54.851Z,1015.23
2023-02-06T03:03:54.936Z,1015.19
2023-02-06T03:04:54.996Z,1015.21
2023-02-06T03:05:54.921Z,1015.20
2023-02-06T03:06:54.930Z,1015.22
2023-02-06T03:07:54.955Z,1015.23
2023-02-06T03:08:54.942Z,1015.23
2023-02-06T03:09:54.944Z,1015.27
2023-02-06T03:10:54.947Z,1015.28
2023-02-06T03:11:54.923Z,1015.27
2023-02-06T03:12:54.916Z,1015.22
2023-02-06T03:13:54.935Z,1015.25
2023-02-06T03:14:55.009Z,1015.24
2023-02-06T03:15:54.959Z,1015.23
2023-02-06T03:16:54.977Z,1015.27
2023-02-06T03:17:55.009Z,1015.26
2023-02-06T03:18:54.948Z,1015.33
2023-02-06T03:19:55.000Z,1015.39
2023-02-06T03:20:55.004Z,1015.36
2023-02-06T03:21:54.960Z,1015.30
2023-02-06T03:22:54.968Z,1015.35
2023-02-06T03:23:55.017Z,1015.32
2023-02-06T03:24:55.016Z,1015.33
2023-02-06T03:25:54.992Z,1015.23
2023-02-06T03:26:54.977Z,1015.20
2023-02-06T03:27:55.040Z,1015.20
2023-02-06T03:28:55.003Z,1015.28
2023-02-06T03:29:55.053Z,1015.30
2023-02-06T03:30:55.195Z,1015.29
2023-02-06T03:31:55.152Z,1015.27
2023-02-06T03:32:55.130Z,1015.29
2023-02-06T03:33:55.131Z,1015.25
2023-02-06T03:34:55.201Z,1015.28
2023-02-06T03:35:55.227Z,1015.33
2023-02-06T03:36:55.186Z,1015.25
2023-02-06T03:37:55.192Z,1015.33
2023-02-06T03:38:55.187Z,1015.26
2023-02-06T03:39:55.265Z,1015.31
2023-02-06T03:40:55.277Z,1015.26
2023-02-06T03:41:55.398Z,1015.28
2023-02-06T03:42:55.348Z,1015.35
2023-02-06T03:43:55.389Z,1015.40
2023-02-06T03:44:55.343Z,1015.30
2023-02-06T03:45:55.387Z,1015.31
2023-02-06T03:46:55.368Z,1015.42
2023-02-06T03:47:55.377Z,1015.38
2023-02-06T03:48:55.386Z,1015.43
2023-02-06T03:49:55.364Z,1015.46
2023-02-06T03:50:55.400Z,1015.47
2023-02-06T03:51:55.373Z,1015.43
2023-02-06T03:52:55.393Z,1015.35
2023-02-06T03:53:55.367Z,1015.38
2023-02-06T03:54:55.367Z,1015.36
2023-02-06T03:55:55.390Z,1015.40
2023-02-06T03:56:55.365Z,1015.32
2023-02-06T03:57:55.389Z,1015.31
2023-02-06T03:58:55.392Z,1015.31
2023-02-06T03:59:55.402Z,1015.32
2023-02-06T04:00:55.545Z,1015.35
2023-02-06T04:01:55.444Z,1015.38
2023-02-06T04:02:55.612Z,1015.39
2023-02-06T04:03:55.447Z,1015.43
2023-02-06T04:04:55.451Z,1015.44
2023-02-06T04:05:55.482Z,1015.41
2023-02-06T04:06:55.479Z,1015.44
2023-02-06T04:07:55.488Z,1015.43
2023-02-06T04:08:55.538Z,1015.36
2023-02-06T04:09:55.540Z,1015.39
2023-02-06T04:10:55.499Z,1015.47
2023-02-06T04:11:55.571Z,1015.33
2023-02-06T04:12:55.575Z,1015.37
2023-02-06T04:13:55.575Z,1015.37
2023-02-06T04:14:55.589Z,1015.34
2023-02-06T04:15:55.578Z,1015.35
2023-02-06T04:16:55.581Z,1015.35
2023-02-06T04:18:00.698Z,1015.41
2023-02-06T04:18:55.591Z,1015.36
2023-02-06T04:19:55.663Z,1015.40
2023-02-06T04:20:55.607Z,1015.44
2023-02-06T04:21:55.636Z,1015.47
2023-02-06T04:22:55.614Z,1015.51
2023-02-06T04:23:55.613Z,1015.45
2023-02-06T04:24:55.637Z,1015.49
2023-02-06T04:25:55.623Z,1015.44
2023-02-06T04:26:55.626Z,1015.59
2023-02-06T04:27:55.639Z,1015.54
2023-02-06T04:28:55.611Z,1015.51
2023-02-06T04:29:55.667Z,1015.55
2023-02-06T04:30:55.781Z,1015.44
2023-02-06T04:31:55.614Z,1015.54
2023-02-06T04:32:55.639Z,1015.55
2023-02-06T04:33:55.624Z,1015.48
2023-02-06T04:34:55.623Z,1015.46
2023-02-06T04:35:55.616Z,1015.53
2023-02-06T04:36:55.635Z,1015.54
2023-02-06T04:37:55.653Z,1015.56
2023-02-06T04:38:55.614Z,1015.55
2023-02-06T04:39:55.632Z,1015.59
2023-02-06T04:40:55.669Z,1015.60
2023-02-06T04:41:55.664Z,1015.61
2023-02-06T04:42:55.635Z,1015.56
2023-02-06T04:43:55.646Z,1015.61
2023-02-06T04:44:55.612Z,1015.66
2023-02-06T04:45:55.677Z,1015.55
2023-02-06T04:46:55.664Z,1015.57
2023-02-06T04:47:56.338Z,1015.56
2023-02-06T04:48:55.618Z,1015.55
2023-02-06T04:49:55.650Z,1015.56
2023-02-06T04:50:55.664Z,1015.63
2023-02-06T04:51:55.638Z,1015.70
2023-02-06T04:52:55.665Z,1015.70
2023-02-06T04:53:55.675Z,1015.59
2023-02-06T04:54:55.620Z,1015.67
2023-02-06T04:55:55.634Z,1015.64
2023-02-06T04:56:55.672Z,1015.60
2023-02-06T04:57:55.666Z,1015.54
2023-02-06T04:58:55.653Z,1015.60
2023-02-06T04:59:55.653Z,1015.60
2023-02-06T05:00:55.638Z,1015.59
2023-02-06T05:01:55.666Z,1015.62
2023-02-06T05:02:55.725Z,1015.59
2023-02-06T05:03:55.641Z,1015.65
2023-02-06T05:04:55.656Z,1015.65
2023-02-06T05:05:55.630Z,1015.56
2023-02-06T05:06:55.662Z,1015.62
2023-02-06T05:07:55.702Z,1015.57
2023-02-06T05:08:55.674Z,1015.53
2023-02-06T05:09:55.657Z,1015.51
2023-02-06T05:10:55.670Z,1015.52
2023-02-06T05:11:55.648Z,1015.54
2023-02-06T05:12:55.683Z,1015.56
2023-02-06T05:13:55.651Z,1015.50
2023-02-06T05:14:55.663Z,1015.48
2023-02-06T05:15:55.672Z,1015.51
2023-02-06T05:16:55.697Z,1015.52
2023-02-06T05:17:55.661Z,1015.45
2023-02-06T05:18:55.689Z,1015.54
2023-02-06T05:19:57.951Z,1015.54
2023-02-06T05:20:55.635Z,1015.53
2023-02-06T05:21:55.658Z,1015.58
2023-02-06T05:22:55.650Z,1015.61
2023-02-06T05:23:55.700Z,1015.61
2023-02-06T05:24:55.678Z,1015.56
2023-02-06T05:25:55.684Z,1015.62
2023-02-06T05:26:55.672Z,1015.55
2023-02-06T05:27:55.713Z,1015.55
2023-02-06T05:28:55.725Z,1015.63
2023-02-06T05:29:55.757Z,1015.63
2023-02-06T05:30:55.766Z,1015.60
2023-02-06T05:31:55.756Z,1015.58
2023-02-06T05:32:55.746Z,1015.57
2023-02-06T05:33:55.768Z,1015.61
2023-02-06T05:34:55.827Z,1015.65
2023-02-06T05:35:55.764Z,1015.65
2023-02-06T05:36:55.794Z,1015.60
2023-02-06T05:37:55.836Z,1015.67
2023-02-06T05:38:55.817Z,1015.68
2023-02-06T05:39:55.878Z,1015.68
2023-02-06T05:40:55.852Z,1015.58
2023-02-06T05:41:55.884Z,1015.58
2023-02-06T05:42:55.885Z,1015.66
2023-02-06T05:43:55.898Z,1015.56
2023-02-06T05:44:55.907Z,1015.55
2023-02-06T05:45:56.002Z,1015.51
2023-02-06T05:46:55.930Z,1015.51
2023-02-06T05:47:55.929Z,1015.53
2023-02-06T05:48:55.970Z,1015.51
2023-02-06T05:49:55.978Z,1015.55
2023-02-06T05:50:55.992Z,1015.51
2023-02-06T05:51:55.975Z,1015.51
2023-02-06T05:52:55.984Z,1015.54
2023-02-06T05:53:56.030Z,1015.42
2023-02-06T05:54:56.009Z,1015.41
2023-02-06T05:55:56.083Z,1015.48
2023-02-06T05:56:56.040Z,1015.45
2023-02-06T05:57:56.077Z,1015.45
2023-02-06T05:58:56.095Z,1015.52
2023-02-06T05:59:56.117Z,1015.48
2023-02-06T06:00:56.095Z,1015.52
2023-02-06T06:01:56.215Z,1015.55
2023-02-06T06:02:56.201Z,1015.54
2023-02-06T06:03:56.229Z,1015.51
2023-02-06T06:04:56.295Z,1015.48
2023-02-06T06:05:56.235Z,1015.55
2023-02-06T06:06:56.234Z,1015.51
2023-02-06T06:07:56.196Z,1015.45
2023-02-06T06:08:56.215Z,1015.46
2023-02-06T06:09:56.232Z,1015.46
2023-02-06T06:10:56.211Z,1015.46
2023-02-06T06:11:56.246Z,1015.47
2023-02-06T06:12:56.265Z,1015.51
2023-02-06T06:13:56.283Z,1015.48
2023-02-06T06:14:56.363Z,1015.56
2023-02-06T06:15:56.375Z,1015.54
2023-02-06T06:16:56.372Z,1015.55
2023-02-06T06:17:56.352Z,1015.58
2023-02-06T06:18:56.389Z,1015.52
2023-02-06T06:19:56.396Z,1015.58
2023-02-06T06:20:56.363Z,1015.50
2023-02-06T06:21:58.233Z,1015.49
2023-02-06T06:22:56.463Z,1015.48
2023-02-06T06:23:56.522Z,1015.43
2023-02-06T06:24:56.485Z,1015.42
2023-02-06T06:25:56.500Z,1015.42
2023-02-06T06:26:56.482Z,1015.41
2023-02-06T06:27:56.524Z,1015.39
2023-02-06T06:28:56.460Z,1015.45
2023-02-06T06:29:56.491Z,1015.48
2023-02-06T06:30:56.492Z,1015.46
2023-02-06T06:31:56.504Z,1015.41
2023-02-06T06:32:56.486Z,1015.48
2023-02-06T06:33:56.592Z,1015.51
2023-02-06T06:34:56.577Z,1015.51
2023-02-06T06:35:56.592Z,1015.46
2023-02-06T06:36:56.574Z,1015.46
2023-02-06T06:37:56.588Z,1015.44
2023-02-06T06:38:56.641Z,1015.43
2023-02-06T06:39:56.605Z,1015.43
2023-02-06T06:40:56.594Z,1015.43
2023-02-06T06:41:56.692Z,1015.42
2023-02-06T06:42:56.710Z,1015.43
2023-02-06T06:43:56.691Z,1015.44
2023-02-06T06:44:56.708Z,1015.45
2023-02-06T06:45:56.792Z,1015.48
2023-02-06T06:46:56.730Z,1015.50
2023-02-06T06:47:56.717Z,1015.48
2023-02-06T06:48:57.029Z,1015.50
2023-02-06T06:49:56.851Z,1015.49
2023-02-06T06:50:56.895Z,1015.46
2023-02-06T06:51:56.831Z,1015.45
2023-02-06T06:52:56.909Z,1015.47
2023-02-06T06:53:56.900Z,1015.46
2023-02-06T06:54:56.901Z,1015.46
2023-02-06T06:55:56.951Z,1015.43
2023-02-06T06:56:56.898Z,1015.46
2023-02-06T06:57:56.935Z,1015.44
2023-02-06T06:58:57.109Z,1015.45
2023-02-06T06:59:56.903Z,1015.43
2023-02-06T07:00:57.057Z,1015.48
2023-02-06T07:01:57.450Z,1015.45
2023-02-06T07:02:56.951Z,1015.48
2023-02-06T07:03:56.928Z,1015.49
2023-02-06T07:04:56.915Z,1015.61
2023-02-06T07:05:57.221Z,1015.55
2023-02-06T07:06:56.964Z,1015.59
2023-02-06T07:07:57.040Z,1015.58
2023-02-06T07:08:56.929Z,1015.57
2023-02-06T07:09:56.934Z,1015.59
2023-02-06T07:10:56.937Z,1015.49
2023-02-06T07:11:56.963Z,1015.52
2023-02-06T07:12:56.965Z,1015.50
2023-02-06T07:13:56.970Z,1015.55
2023-02-06T07:14:57.434Z,1015.52
2023-02-06T07:15:57.100Z,1015.57
2023-02-06T07:16:57.172Z,1015.55
2023-02-06T07:17:57.131Z,1015.55
2023-02-06T07:18:57.509Z,1015.54
2023-02-06T07:19:57.116Z,1015.60
2023-02-06T07:20:57.138Z,1015.58
2023-02-06T07:21:57.178Z,1015.50
2023-02-06T07:22:57.087Z,1015.48
2023-02-06T07:23:57.110Z,1015.51
2023-02-06T07:24:57.149Z,1015.52
2023-02-06T07:25:57.291Z,1015.56
2023-02-06T07:26:57.118Z,1015.54
2023-02-06T07:27:57.259Z,1015.58
2023-02-06T07:28:57.149Z,1015.54
2023-02-06T07:29:57.167Z,1015.59
2023-02-06T07:30:57.221Z,1015.52
2023-02-06T07:31:57.190Z,1015.48
2023-02-06T07:32:57.443Z,1015.62
2023-02-06T07:33:57.191Z,1015.58
2023-02-06T07:34:57.300Z,1015.58
2023-02-06T07:35:57.290Z,1015.58
2023-02-06T07:36:57.214Z,1015.59
2023-02-06T07:37:57.253Z,1015.54
2023-02-06T07:38:57.261Z,1015.63
2023-02-06T07:39:57.431Z,1545.88
2023-02-06T07:40:57.385Z,1015.60
2023-02-06T07:41:57.933Z,1015.71
2023-02-06T07:42:57.375Z,1015.58
2023-02-06T07:43:57.440Z,1015.60
2023-02-06T07:44:57.435Z,1015.66
2023-02-06T07:45:57.683Z,1015.53
2023-02-06T07:46:57.421Z,1015.56
2023-02-06T07:47:57.655Z,1015.59
2023-02-06T07:48:57.484Z,1015.64
2023-02-06T07:49:57.426Z,1015.62
2023-02-06T07:50:57.463Z,1015.62
2023-02-06T07:51:57.464Z,1015.64
2023-02-06T07:52:57.447Z,1015.70
2023-02-06T07:53:57.442Z,1015.69
2023-02-06T07:54:57.445Z,1015.65
2023-02-06T07:55:57.496Z,1015.65
2023-02-06T07:56:57.481Z,1015.68
2023-02-06T07:57:57.511Z,1015.68
2023-02-06T07:58:57.528Z,1015.67
2023-02-06T07:59:57.552Z,1015.70
2023-02-06T08:00:57.596Z,1015.61
2023-02-06T08:01:57.554Z,1015.63
2023-02-06T08:02:57.554Z,1015.61
2023-02-06T08:03:57.589Z,1015.61
2023-02-06T08:04:57.576Z,1015.71
2023-02-06T08:05:57.576Z,1015.63
2023-02-06T08:06:57.603Z,1015.67
2023-02-06T08:07:57.629Z,1015.65
2023-02-06T08:08:57.603Z,1015.73
2023-02-06T08:09:57.622Z,1015.66
2023-02-06T08:10:57.643Z,1015.74
2023-02-06T08:11:57.663Z,1015.65
2023-02-06T08:12:57.690Z,1015.64
2023-02-06T08:13:57.685Z,1015.61
2023-02-06T08:14:57.680Z,1015.64
2023-02-06T08:15:57.687Z,1015.64
2023-02-06T08:16:57.761Z,1015.60
2023-02-06T08:17:57.742Z,1015.63
2023-02-06T08:18:57.747Z,1015.72
2023-02-06T08:19:57.762Z,1015.72
2023-02-06T08:20:57.761Z,1015.71
2023-02-06T08:21:57.770Z,1015.74
2023-02-06T08:22:57.783Z,1015.77
2023-02-06T08:23:57.868Z,1015.84
2023-02-06T08:24:57.820Z,1015.81
2023-02-06T08:25:57.825Z,1015.81
2023-02-06T08:26:57.832Z,1015.79
2023-02-06T08:27:57.949Z,1015.80
2023-02-06T08:28:57.844Z,1015.77
2023-02-06T08:29:57.876Z,1015.76
2023-02-06T08:30:58.088Z,1015.84
2023-02-06T08:31:57.922Z,1015.77
2023-02-06T08:32:57.898Z,1015.80
2023-02-06T08:33:57.912Z,1015.75
2023-02-06T08:34:57.953Z,1015.72
2023-02-06T08:35:57.953Z,1015.72
2023-02-06T08:36:57.985Z,1015.78
2023-02-06T08:37:57.996Z,1015.73
2023-02-06T08:38:57.993Z,1015.66
2023-02-06T08:39:58.023Z,1015.73
2023-02-06T08:40:58.050Z,1015.72
2023-02-06T08:41:58.049Z,1015.77
2023-02-06T08:42:58.025Z,1015.79
2023-02-06T08:43:58.033Z,1015.73
2023-02-06T08:44:58.065Z,1015.73
2023-02-06T08:45:58.154Z,1015.77
2023-02-06T08:47:09.225Z,1015.76
2023-02-06T08:47:58.078Z,1015.73
2023-02-06T08:48:58.081Z,1015.67
2023-02-06T08:49:58.065Z,1015.76
2023-02-06T08:50:58.083Z,1015.72
2023-02-06T08:51:58.083Z,1015.68
2023-02-06T08:52:58.091Z,1015.65
2023-02-06T08:53:58.076Z,1015.67
2023-02-06T08:54:58.080Z,1015.57
2023-02-06T08:55:58.102Z,1015.61
2023-02-06T08:56:58.105Z,1015.66
2023-02-06T08:57:58.115Z,1015.52
2023-02-06T08:58:58.073Z,1015.62
2023-02-06T08:59:58.097Z,1015.53
2023-02-06T09:00:58.117Z,1015.65
2023-02-06T09:01:58.104Z,1015.58
2023-02-06T09:02:58.081Z,1015.55
2023-02-06T09:03:58.090Z,1015.56
2023-02-06T09:04:58.073Z,1015.57
2023-02-06T09:06:05.568Z,1015.53
2023-02-06T09:06:58.095Z,1015.53
2023-02-06T09:07:58.097Z,1015.54
2023-02-06T09:08:58.094Z,1015.52
2023-02-06T09:09:58.103Z,1015.53
2023-02-06T09:10:58.122Z,1015.45
2023-02-06T09:11:58.183Z,1015.42
2023-02-06T09:12:58.116Z,1015.46
2023-02-06T09:13:58.120Z,1015.42
2023-02-06T09:14:58.125Z,1015.43
2023-02-06T09:15:58.141Z,1015.38
2023-02-06T09:16:58.166Z,1015.43
2023-02-06T09:17:58.134Z,1015.53
2023-02-06T09:18:58.102Z,1015.48
2023-02-06T09:19:58.103Z,1015.44
2023-02-06T09:20:58.102Z,1015.44
2023-02-06T09:21:58.168Z,1015.42
2023-02-06T09:22:58.104Z,1015.46
2023-02-06T09:23:58.084Z,1015.50
2023-02-06T09:24:58.097Z,1015.48
2023-02-06T09:25:58.141Z,1015.55
2023-02-06T09:27:00.264Z,1015.49
2023-02-06T09:27:58.290Z,1015.50
2023-02-06T09:28:58.264Z,1015.52
2023-02-06T09:29:58.276Z,1015.61
2023-02-06T09:30:58.472Z,1015.60
2023-02-06T09:31:58.311Z,1015.57
2023-02-06T09:32:58.280Z,1015.59
2023-02-06T09:33:58.296Z,1015.56
2023-02-06T09:34:58.383Z,1015.64
2023-02-06T09:35:58.475Z,1015.65
2023-02-06T09:36:58.363Z,1015.63
2023-02-06T09:37:58.342Z,1015.67
2023-02-06T09:38:58.443Z,1015.73
2023-02-06T09:39:58.383Z,1015.77
2023-02-06T09:40:58.402Z,1015.75
2023-02-06T09:41:58.427Z,1015.79
2023-02-06T09:42:58.400Z,1015.75
2023-02-06T09:43:58.621Z,1015.70
2023-02-06T09:44:58.611Z,1015.70
2023-02-06T09:45:58.738Z,1015.78
2023-02-06T09:46:58.645Z,1015.76
2023-02-06T09:47:58.820Z,1015.72
2023-02-06T09:48:58.735Z,1015.68
2023-02-06T09:49:58.825Z,1015.68
2023-02-06T09:50:58.681Z,1015.63
2023-02-06T09:52:00.990Z,1015.60
2023-02-06T09:52:58.671Z,1015.59
2023-02-06T09:53:58.702Z,1015.63
2023-02-06T09:54:58.672Z,1015.53
2023-02-06T09:55:58.677Z,1015.53
2023-02-06T09:56:58.684Z,1015.49
2023-02-06T09:57:58.671Z,1015.52
2023-02-06T09:58:58.690Z,1015.46
2023-02-06T09:59:58.674Z,1015.52
2023-02-06T10:00:58.682Z,1015.53
2023-02-06T10:01:58.782Z,1015.46
2023-02-06T10:02:58.760Z,1015.47
2023-02-06T10:03:58.834Z,1015.38
2023-02-06T10:04:58.774Z,1015.36
2023-02-06T10:05:58.766Z,1015.43
2023-02-06T10:06:59.847Z,1015.36
2023-02-06T10:08:00.291Z,1203.03
2023-02-06T10:08:59.984Z,1204.66
2023-02-06T10:10:00.702Z,1205.87
2023-02-06T10:11:00.848Z,1015.30
2023-02-06T10:12:00.731Z,1015.30
2023-02-06T10:13:01.161Z,1015.28
2023-02-06T10:14:01.004Z,1015.28
2023-02-06T10:15:00.961Z,1015.35
2023-02-06T10:16:01.168Z,1015.31
2023-02-06T10:17:01.052Z,1015.16
2023-02-06T10:18:00.984Z,1015.19
2023-02-06T10:19:01.096Z,-172.56
2023-02-06T10:20:00.991Z,1015.17
2023-02-06T10:21:01.038Z,1015.20
2023-02-06T10:22:01.087Z,-172.59
2023-02-06T10:23:01.070Z,1204.66
2023-02-06T10:24:00.971Z,1015.03
2023-02-06T10:25:01.085Z,1015.02
2023-02-06T10:26:01.004Z,1014.93
2023-02-06T10:27:01.134Z,1204.66
2023-02-06T10:28:01.125Z,1014.98
2023-02-06T10:29:01.097Z,1014.94
2023-02-06T10:30:01.016Z,1552.21
2023-02-06T10:31:01.329Z,1552.28
2023-02-06T10:32:01.081Z,1552.24
2023-02-06T10:33:01.056Z,1204.66
2023-02-06T10:34:01.105Z,1014.97
2023-02-06T10:35:01.087Z,1014.93
2023-02-06T10:36:01.020Z,1014.90
2023-02-06T10:37:01.035Z,1014.93
2023-02-06T10:38:01.036Z,1014.90
2023-02-06T10:39:01.116Z,-172.62
2023-02-06T10:40:02.925Z,1014.79
2023-02-06T10:41:01.084Z,1014.77
2023-02-06T10:42:01.060Z,1014.80
2023-02-06T10:43:01.157Z,789.48
2023-02-06T10:44:01.027Z,1014.76
2023-02-06T10:45:17.020Z,1014.80
2023-02-06T10:46:01.149Z,1014.61
2023-02-06T10:47:01.107Z,1014.66
2023-02-06T10:48:01.044Z,1553.38
2023-02-06T10:49:01.176Z,1014.52
2023-02-06T10:50:01.233Z,1014.56
2023-02-06T10:51:01.116Z,1014.50
2023-02-06T10:52:01.157Z,1014.51
2023-02-06T10:53:01.170Z,1014.53
2023-02-06T10:54:01.066Z,1014.44
2023-02-06T10:55:01.143Z,1014.52
2023-02-06T10:56:01.150Z,1014.54
2023-02-06T10:57:01.238Z,1014.46
2023-02-06T10:58:03.430Z,1204.66
2023-02-06T10:59:03.311Z,1014.45
2023-02-06T11:00:03.257Z,788.78
2023-02-06T11:01:07.040Z,1014.48
2023-02-06T11:02:03.377Z,1014.51
2023-02-06T11:03:07.437Z,1204.66
2023-02-06T11:04:03.391Z,1014.55
2023-02-06T11:05:03.411Z,1014.44
2023-02-06T11:06:03.421Z,1014.45
2023-02-06T11:07:03.537Z,1014.45
2023-02-06T11:08:03.673Z,1553.95
2023-02-06T11:09:03.451Z,1014.45
2023-02-06T11:10:03.436Z,1014.53
2023-02-06T11:11:03.438Z,1014.52
2023-02-06T11:12:03.493Z,1554.04
2023-02-06T11:13:03.511Z,1014.53
2023-02-06T11:14:03.496Z,1014.49
2023-02-06T11:15:03.505Z,1014.49
2023-02-06T11:16:03.493Z,1014.41
2023-02-06T11:17:03.457Z,1014.38
2023-02-06T11:18:03.426Z,1014.19
2023-02-06T11:19:03.442Z,1014.24
2023-02-06T11:20:03.424Z,1014.22
2023-02-06T11:21:03.465Z,1014.23
2023-02-06T11:22:03.438Z,1014.24
2023-02-06T11:23:03.497Z,1014.20
2023-02-06T11:24:03.498Z,1014.18
2023-02-06T11:25:03.506Z,1014.16
2023-02-06T11:26:04.019Z,1204.66
2023-02-06T11:27:03.941Z,1014.16
2023-02-06T11:28:03.942Z,1014.19
2023-02-06T11:29:03.848Z,1014.18
2023-02-06T11:30:03.889Z,1014.24
2023-02-06T11:31:04.920Z,1014.22
2023-02-06T11:32:03.983Z,1014.14
2023-02-06T11:33:05.022Z,1014.18
2023-02-06T11:34:03.910Z,1014.22
2023-02-06T11:35:03.879Z,1014.30
2023-02-06T11:36:03.934Z,1014.29
2023-02-06T11:37:03.897Z,1014.28
2023-02-06T11:38:05.361Z,1014.28
2023-02-06T11:39:03.923Z,1014.37
2023-02-06T11:40:03.894Z,1014.20
2023-02-06T11:41:03.957Z,1014.25
2023-02-06T11:42:03.879Z,1014.09
2023-02-06T11:43:03.925Z,1014.12
2023-02-06T11:44:03.885Z,1014.10
2023-02-06T11:45:04.008Z,1014.11
2023-02-06T11:46:03.985Z,1014.06
2023-02-06T11:47:04.098Z,1014.11
2023-02-06T11:48:03.902Z,-172.93
2023-02-06T11:49:04.276Z,1014.13
2023-02-06T11:50:03.921Z,1014.09
2023-02-06T11:51:04.193Z,1014.07
2023-02-06T11:52:03.960Z,1014.03
2023-02-06T11:53:03.944Z,1014.12
2023-02-06T11:54:04.036Z,1013.96
2023-02-06T11:55:03.990Z,1013.94
2023-02-06T11:56:03.936Z,1013.97
2023-02-06T11:57:03.936Z,1013.97
2023-02-06T11:58:04.002Z,1013.92
2023-02-06T11:59:06.601Z,1013.84
2023-02-06T12:00:04.054Z,1013.81
2023-02-06T12:01:03.918Z,1013.83
2023-02-06T12:02:04.054Z,1013.84
2023-02-06T12:03:04.118Z,1013.90
2023-02-06T12:04:04.168Z,1013.92
2023-02-06T12:05:03.973Z,1013.85
2023-02-06T12:06:03.928Z,1013.79
2023-02-06T12:07:04.297Z,1013.84
2023-02-06T12:08:03.927Z,1013.83
2023-02-06T12:09:03.930Z,1013.94
2023-02-06T12:10:03.917Z,1013.88
2023-02-06T12:11:03.993Z,1013.80
2023-02-06T12:12:04.030Z,1013.77
2023-02-06T12:13:03.919Z,1013.84
2023-02-06T12:14:03.933Z,1013.88
2023-02-06T12:15:23.573Z,1013.84
2023-02-06T12:16:03.970Z,1013.87